sensor_id;sensor_type;location;lat;lon;timestamp;P1;durP1;ratioP1;P2;durP2;ratioP2
76167;SDS011;64927;48.214;16.378;2023-07-22T00:02:24;5.93;;;2.75;;
76167;SDS011;64927;48.214;16.378;2023-07-22T00:04:50;6.75;;;3.20;;
76167;SDS011;64927;48.214;16.378;2023-07-22T00:07:17;2.97;;;2.60;;
76167;SDS011;64927;48.214;16.378;2023-07-22T00:09:42;5.07;;;2.75;;
76167;SDS011;64927;48.214;16.378;2023-07-22T00:12:08;3.67;;;2.78;;
76167;SDS011;64927;48.214;16.378;2023-07-22T00:14:39;6.15;;;2.63;;
76167;SDS011;64927;48.214;16.378;2023-07-22T00:17:06;4.13;;;2.65;;
76167;SDS011;64927;48.214;16.378;2023-07-22T00:19:32;3.95;;;2.65;;
76167;SDS011;64927;48.214;16.378;2023-07-22T00:21:59;4.35;;;2.60;;
76167;SDS011;64927;48.214;16.378;2023-07-22T00:24:24;6.35;;;2.70;;
76167;SDS011;64927;48.214;16.378;2023-07-22T00:26:50;4.50;;;3.05;;
76167;SDS011;64927;48.214;16.378;2023-07-22T00:29:16;3.78;;;2.70;;
76167;SDS011;64927;48.214;16.378;2023-07-22T00:31:42;4.22;;;2.72;;
76167;SDS011;64927;48.214;16.378;2023-07-22T00:34:07;5.55;;;2.40;;
76167;SDS011;64927;48.214;16.378;2023-07-22T00:36:36;4.22;;;2.75;;
76167;SDS011;64927;48.214;16.378;2023-07-22T00:39:02;6.13;;;2.78;;
76167;SDS011;64927;48.214;16.378;2023-07-22T00:41:28;3.10;;;2.70;;
76167;SDS011;64927;48.214;16.378;2023-07-22T00:43:54;3.35;;;2.65;;
76167;SDS011;64927;48.214;16.378;2023-07-22T00:46:24;3.70;;;2.55;;
76167;SDS011;64927;48.214;16.378;2023-07-22T00:48:50;3.47;;;2.42;;
76167;SDS011;64927;48.214;16.378;2023-07-22T00:51:16;3.08;;;2.65;;
76167;SDS011;64927;48.214;16.378;2023-07-22T00:53:45;2.53;;;2.30;;
76167;SDS011;64927;48.214;16.378;2023-07-22T00:56:11;5.13;;;2.65;;
76167;SDS011;64927;48.214;16.378;2023-07-22T00:58:37;3.70;;;2.65;;
76167;SDS011;64927;48.214;16.378;2023-07-22T01:01:02;5.20;;;3.17;;
76167;SDS011;64927;48.214;16.378;2023-07-22T01:03:28;6.03;;;2.95;;
76167;SDS011;64927;48.214;16.378;2023-07-22T01:05:53;3.63;;;2.38;;
76167;SDS011;64927;48.214;16.378;2023-07-22T01:08:20;4.13;;;2.55;;
76167;SDS011;64927;48.214;16.378;2023-07-22T01:10:46;4.20;;;2.22;;
76167;SDS011;64927;48.214;16.378;2023-07-22T01:13:13;3.75;;;2.35;;
76167;SDS011;64927;48.214;16.378;2023-07-22T01:15:38;4.47;;;2.33;;
76167;SDS011;64927;48.214;16.378;2023-07-22T01:18:05;2.97;;;2.42;;
76167;SDS011;64927;48.214;16.378;2023-07-22T01:20:31;3.40;;;2.20;;
76167;SDS011;64927;48.214;16.378;2023-07-22T01:22:58;4.93;;;2.70;;
76167;SDS011;64927;48.214;16.378;2023-07-22T01:25:24;4.35;;;2.40;;
76167;SDS011;64927;48.214;16.378;2023-07-22T01:27:55;6.82;;;3.47;;
76167;SDS011;64927;48.214;16.378;2023-07-22T01:30:20;3.70;;;2.70;;
76167;SDS011;64927;48.214;16.378;2023-07-22T01:32:46;5.40;;;2.50;;
76167;SDS011;64927;48.214;16.378;2023-07-22T01:35:12;3.75;;;2.45;;
76167;SDS011;64927;48.214;16.378;2023-07-22T01:37:38;5.25;;;2.75;;
76167;SDS011;64927;48.214;16.378;2023-07-22T01:40:06;6.32;;;2.83;;
76167;SDS011;64927;48.214;16.378;2023-07-22T01:42:39;5.95;;;2.78;;
76167;SDS011;64927;48.214;16.378;2023-07-22T01:45:08;10.15;;;3.42;;
76167;SDS011;64927;48.214;16.378;2023-07-22T01:47:35;3.58;;;2.45;;
76167;SDS011;64927;48.214;16.378;2023-07-22T01:50:04;4.43;;;3.03;;
76167;SDS011;64927;48.214;16.378;2023-07-22T01:52:31;5.25;;;2.80;;
76167;SDS011;64927;48.214;16.378;2023-07-22T01:54:57;3.30;;;2.80;;
76167;SDS011;64927;48.214;16.378;2023-07-22T01:57:22;5.00;;;3.40;;
76167;SDS011;64927;48.214;16.378;2023-07-22T01:59:48;7.60;;;3.03;;
76167;SDS011;64927;48.214;16.378;2023-07-22T02:02:13;4.78;;;3.03;;
76167;SDS011;64927;48.214;16.378;2023-07-22T02:04:39;3.67;;;2.90;;
76167;SDS011;64927;48.214;16.378;2023-07-22T02:07:05;3.88;;;3.08;;
76167;SDS011;64927;48.214;16.378;2023-07-22T02:09:31;6.47;;;2.90;;
76167;SDS011;64927;48.214;16.378;2023-07-22T02:11:58;6.55;;;2.72;;
76167;SDS011;64927;48.214;16.378;2023-07-22T02:14:26;4.60;;;2.97;;
76167;SDS011;64927;48.214;16.378;2023-07-22T02:16:52;4.68;;;2.95;;
76167;SDS011;64927;48.214;16.378;2023-07-22T02:19:17;4.05;;;2.97;;
76167;SDS011;64927;48.214;16.378;2023-07-22T02:21:43;4.60;;;2.53;;
76167;SDS011;64927;48.214;16.378;2023-07-22T02:24:09;3.65;;;2.90;;
76167;SDS011;64927;48.214;16.378;2023-07-22T02:26:35;7.45;;;3.15;;
76167;SDS011;64927;48.214;16.378;2023-07-22T02:29:01;5.13;;;2.83;;
76167;SDS011;64927;48.214;16.378;2023-07-22T02:31:27;9.00;;;3.10;;
76167;SDS011;64927;48.214;16.378;2023-07-22T02:33:54;4.35;;;3.25;;
76167;SDS011;64927;48.214;16.378;2023-07-22T02:36:20;3.55;;;2.90;;
76167;SDS011;64927;48.214;16.378;2023-07-22T02:38:47;4.65;;;3.45;;
76167;SDS011;64927;48.214;16.378;2023-07-22T02:41:14;5.75;;;2.97;;
76167;SDS011;64927;48.214;16.378;2023-07-22T02:43:39;4.68;;;3.40;;
76167;SDS011;64927;48.214;16.378;2023-07-22T02:46:05;6.07;;;3.10;;
76167;SDS011;64927;48.214;16.378;2023-07-22T02:48:34;4.85;;;3.08;;
76167;SDS011;64927;48.214;16.378;2023-07-22T02:51:06;3.88;;;2.92;;
76167;SDS011;64927;48.214;16.378;2023-07-22T02:53:33;6.55;;;2.97;;
76167;SDS011;64927;48.214;16.378;2023-07-22T02:55:59;6.03;;;3.42;;
76167;SDS011;64927;48.214;16.378;2023-07-22T02:58:25;4.28;;;3.03;;
76167;SDS011;64927;48.214;16.378;2023-07-22T03:00:51;5.07;;;3.28;;
76167;SDS011;64927;48.214;16.378;2023-07-22T03:03:19;6.22;;;3.70;;
76167;SDS011;64927;48.214;16.378;2023-07-22T03:05:45;3.83;;;3.05;;
76167;SDS011;64927;48.214;16.378;2023-07-22T03:08:15;5.70;;;2.92;;
76167;SDS011;64927;48.214;16.378;2023-07-22T03:10:43;5.80;;;3.20;;
76167;SDS011;64927;48.214;16.378;2023-07-22T03:13:13;8.73;;;3.15;;
76167;SDS011;64927;48.214;16.378;2023-07-22T03:15:39;5.97;;;3.53;;
76167;SDS011;64927;48.214;16.378;2023-07-22T03:18:05;4.95;;;3.35;;
76167;SDS011;64927;48.214;16.378;2023-07-22T03:20:31;5.90;;;3.28;;
76167;SDS011;64927;48.214;16.378;2023-07-22T03:22:57;6.50;;;3.58;;
76167;SDS011;64927;48.214;16.378;2023-07-22T03:25:23;7.88;;;3.30;;
76167;SDS011;64927;48.214;16.378;2023-07-22T03:27:48;7.45;;;3.40;;
76167;SDS011;64927;48.214;16.378;2023-07-22T03:30:14;6.93;;;3.35;;
76167;SDS011;64927;48.214;16.378;2023-07-22T03:32:44;9.27;;;3.38;;
76167;SDS011;64927;48.214;16.378;2023-07-22T03:35:12;4.63;;;3.35;;
76167;SDS011;64927;48.214;16.378;2023-07-22T03:37:38;7.40;;;4.10;;
76167;SDS011;64927;48.214;16.378;2023-07-22T03:40:05;5.05;;;2.90;;
76167;SDS011;64927;48.214;16.378;2023-07-22T03:43:01;5.47;;;3.13;;
76167;SDS011;64927;48.214;16.378;2023-07-22T03:45:27;7.00;;;3.13;;
76167;SDS011;64927;48.214;16.378;2023-07-22T03:47:56;5.38;;;3.40;;
76167;SDS011;64927;48.214;16.378;2023-07-22T03:50:23;4.10;;;2.88;;
76167;SDS011;64927;48.214;16.378;2023-07-22T03:52:50;5.53;;;3.00;;
76167;SDS011;64927;48.214;16.378;2023-07-22T03:55:15;6.05;;;3.50;;
76167;SDS011;64927;48.214;16.378;2023-07-22T03:57:41;5.55;;;3.10;;
76167;SDS011;64927;48.214;16.378;2023-07-22T04:00:07;5.55;;;3.15;;
76167;SDS011;64927;48.214;16.378;2023-07-22T04:02:36;5.22;;;3.22;;
76167;SDS011;64927;48.214;16.378;2023-07-22T04:05:04;5.30;;;3.28;;
76167;SDS011;64927;48.214;16.378;2023-07-22T04:07:30;7.53;;;2.97;;
76167;SDS011;64927;48.214;16.378;2023-07-22T04:09:55;5.05;;;2.72;;
76167;SDS011;64927;48.214;16.378;2023-07-22T04:12:23;7.57;;;2.70;;
76167;SDS011;64927;48.214;16.378;2023-07-22T04:14:53;5.32;;;3.72;;
76167;SDS011;64927;48.214;16.378;2023-07-22T04:17:19;3.35;;;2.72;;
76167;SDS011;64927;48.214;16.378;2023-07-22T04:19:47;5.88;;;2.95;;
76167;SDS011;64927;48.214;16.378;2023-07-22T04:22:13;3.63;;;2.95;;
76167;SDS011;64927;48.214;16.378;2023-07-22T04:24:38;4.50;;;3.08;;
76167;SDS011;64927;48.214;16.378;2023-07-22T04:27:06;4.78;;;2.72;;
76167;SDS011;64927;48.214;16.378;2023-07-22T04:29:32;4.85;;;2.97;;
76167;SDS011;64927;48.214;16.378;2023-07-22T04:31:58;5.63;;;2.75;;
76167;SDS011;64927;48.214;16.378;2023-07-22T04:34:24;4.32;;;2.67;;
76167;SDS011;64927;48.214;16.378;2023-07-22T04:36:53;5.40;;;2.78;;
76167;SDS011;64927;48.214;16.378;2023-07-22T04:39:19;5.40;;;3.00;;
76167;SDS011;64927;48.214;16.378;2023-07-22T04:41:44;3.08;;;2.47;;
76167;SDS011;64927;48.214;16.378;2023-07-22T04:44:10;5.05;;;2.88;;
76167;SDS011;64927;48.214;16.378;2023-07-22T04:46:35;4.20;;;3.03;;
76167;SDS011;64927;48.214;16.378;2023-07-22T04:49:01;3.83;;;2.58;;
76167;SDS011;64927;48.214;16.378;2023-07-22T04:51:27;7.30;;;2.80;;
76167;SDS011;64927;48.214;16.378;2023-07-22T04:53:53;4.03;;;2.90;;
76167;SDS011;64927;48.214;16.378;2023-07-22T04:56:18;4.15;;;2.58;;
76167;SDS011;64927;48.214;16.378;2023-07-22T04:58:44;5.43;;;3.22;;
76167;SDS011;64927;48.214;16.378;2023-07-22T05:01:12;5.43;;;3.00;;
76167;SDS011;64927;48.214;16.378;2023-07-22T05:03:38;3.65;;;2.60;;
76167;SDS011;64927;48.214;16.378;2023-07-22T05:06:03;6.05;;;3.08;;
76167;SDS011;64927;48.214;16.378;2023-07-22T05:08:31;4.35;;;2.90;;
76167;SDS011;64927;48.214;16.378;2023-07-22T05:10:56;9.30;;;3.03;;
76167;SDS011;64927;48.214;16.378;2023-07-22T05:13:24;9.75;;;2.58;;
76167;SDS011;64927;48.214;16.378;2023-07-22T05:15:50;3.20;;;2.65;;
76167;SDS011;64927;48.214;16.378;2023-07-22T05:18:15;4.72;;;3.30;;
76167;SDS011;64927;48.214;16.378;2023-07-22T05:20:41;7.85;;;2.92;;
76167;SDS011;64927;48.214;16.378;2023-07-22T05:23:07;4.18;;;2.90;;
76167;SDS011;64927;48.214;16.378;2023-07-22T05:25:32;3.78;;;2.67;;
76167;SDS011;64927;48.214;16.378;2023-07-22T05:27:58;5.97;;;3.10;;
76167;SDS011;64927;48.214;16.378;2023-07-22T05:30:24;4.20;;;2.60;;
76167;SDS011;64927;48.214;16.378;2023-07-22T05:32:52;3.78;;;2.70;;
76167;SDS011;64927;48.214;16.378;2023-07-22T05:35:18;5.38;;;3.15;;
76167;SDS011;64927;48.214;16.378;2023-07-22T05:37:43;3.88;;;2.65;;
76167;SDS011;64927;48.214;16.378;2023-07-22T05:40:10;6.18;;;3.30;;
76167;SDS011;64927;48.214;16.378;2023-07-22T05:42:36;4.85;;;3.20;;
76167;SDS011;64927;48.214;16.378;2023-07-22T05:45:04;3.80;;;2.78;;
76167;SDS011;64927;48.214;16.378;2023-07-22T05:47:30;5.85;;;2.92;;
76167;SDS011;64927;48.214;16.378;2023-07-22T05:49:55;5.55;;;3.08;;
76167;SDS011;64927;48.214;16.378;2023-07-22T05:52:21;7.07;;;3.47;;
76167;SDS011;64927;48.214;16.378;2023-07-22T05:54:49;5.47;;;2.70;;
76167;SDS011;64927;48.214;16.378;2023-07-22T05:57:15;4.60;;;3.33;;
76167;SDS011;64927;48.214;16.378;2023-07-22T05:59:43;7.63;;;3.17;;
76167;SDS011;64927;48.214;16.378;2023-07-22T06:02:09;6.20;;;2.90;;
76167;SDS011;64927;48.214;16.378;2023-07-22T06:04:37;4.70;;;2.50;;
76167;SDS011;64927;48.214;16.378;2023-07-22T06:07:03;4.55;;;3.13;;
76167;SDS011;64927;48.214;16.378;2023-07-22T06:09:29;5.60;;;2.90;;
76167;SDS011;64927;48.214;16.378;2023-07-22T06:11:55;4.07;;;2.67;;
76167;SDS011;64927;48.214;16.378;2023-07-22T06:14:20;4.45;;;2.72;;
76167;SDS011;64927;48.214;16.378;2023-07-22T06:16:48;3.70;;;3.10;;
76167;SDS011;64927;48.214;16.378;2023-07-22T06:19:14;4.55;;;2.92;;
76167;SDS011;64927;48.214;16.378;2023-07-22T06:21:40;5.78;;;3.10;;
76167;SDS011;64927;48.214;16.378;2023-07-22T06:24:05;3.97;;;3.13;;
76167;SDS011;64927;48.214;16.378;2023-07-22T06:26:31;4.68;;;2.97;;
76167;SDS011;64927;48.214;16.378;2023-07-22T06:28:56;4.72;;;3.05;;
76167;SDS011;64927;48.214;16.378;2023-07-22T06:31:22;3.65;;;2.25;;
76167;SDS011;64927;48.214;16.378;2023-07-22T06:33:48;4.60;;;2.65;;
76167;SDS011;64927;48.214;16.378;2023-07-22T06:36:13;7.85;;;2.33;;
76167;SDS011;64927;48.214;16.378;2023-07-22T06:38:39;3.08;;;2.42;;
76167;SDS011;64927;48.214;16.378;2023-07-22T06:41:04;3.35;;;2.38;;
76167;SDS011;64927;48.214;16.378;2023-07-22T06:43:30;3.58;;;2.33;;
76167;SDS011;64927;48.214;16.378;2023-07-22T06:45:56;2.60;;;1.88;;
76167;SDS011;64927;48.214;16.378;2023-07-22T06:48:21;3.55;;;2.60;;
76167;SDS011;64927;48.214;16.378;2023-07-22T06:50:50;5.70;;;2.35;;
76167;SDS011;64927;48.214;16.378;2023-07-22T06:53:15;4.45;;;2.63;;
76167;SDS011;64927;48.214;16.378;2023-07-22T06:55:51;6.68;;;2.33;;
76167;SDS011;64927;48.214;16.378;2023-07-22T06:58:17;3.42;;;2.15;;
76167;SDS011;64927;48.214;16.378;2023-07-22T07:00:44;2.97;;;2.30;;
76167;SDS011;64927;48.214;16.378;2023-07-22T07:03:12;3.92;;;2.40;;
76167;SDS011;64927;48.214;16.378;2023-07-22T07:05:37;3.15;;;2.10;;
76167;SDS011;64927;48.214;16.378;2023-07-22T07:08:06;3.67;;;2.42;;
76167;SDS011;64927;48.214;16.378;2023-07-22T07:10:36;3.03;;;2.33;;
76167;SDS011;64927;48.214;16.378;2023-07-22T07:13:02;5.03;;;2.17;;
76167;SDS011;64927;48.214;16.378;2023-07-22T07:15:28;5.22;;;2.00;;
76167;SDS011;64927;48.214;16.378;2023-07-22T07:17:53;3.78;;;2.20;;
76167;SDS011;64927;48.214;16.378;2023-07-22T07:20:19;2.45;;;1.98;;
76167;SDS011;64927;48.214;16.378;2023-07-22T07:22:45;2.42;;;1.80;;
76167;SDS011;64927;48.214;16.378;2023-07-22T07:25:11;3.97;;;2.47;;
76167;SDS011;64927;48.214;16.378;2023-07-22T07:27:40;2.78;;;2.03;;
76167;SDS011;64927;48.214;16.378;2023-07-22T07:30:06;2.80;;;2.00;;
76167;SDS011;64927;48.214;16.378;2023-07-22T07:32:33;3.25;;;1.80;;
76167;SDS011;64927;48.214;16.378;2023-07-22T07:35:01;4.55;;;1.90;;
76167;SDS011;64927;48.214;16.378;2023-07-22T07:37:29;3.33;;;2.08;;
76167;SDS011;64927;48.214;16.378;2023-07-22T07:39:54;2.30;;;2.00;;
76167;SDS011;64927;48.214;16.378;2023-07-22T07:42:24;3.35;;;1.90;;
76167;SDS011;64927;48.214;16.378;2023-07-22T07:44:53;2.40;;;2.03;;
76167;SDS011;64927;48.214;16.378;2023-07-22T07:47:18;3.17;;;2.13;;
76167;SDS011;64927;48.214;16.378;2023-07-22T07:49:47;5.32;;;2.20;;
76167;SDS011;64927;48.214;16.378;2023-07-22T07:52:12;4.13;;;2.20;;
76167;SDS011;64927;48.214;16.378;2023-07-22T07:54:38;5.53;;;2.17;;
76167;SDS011;64927;48.214;16.378;2023-07-22T07:57:03;2.13;;;1.92;;
76167;SDS011;64927;48.214;16.378;2023-07-22T07:59:30;1.85;;;1.65;;
76167;SDS011;64927;48.214;16.378;2023-07-22T08:01:55;2.53;;;2.20;;
76167;SDS011;64927;48.214;16.378;2023-07-22T08:04:21;5.15;;;2.63;;
76167;SDS011;64927;48.214;16.378;2023-07-22T08:06:48;3.90;;;2.10;;
76167;SDS011;64927;48.214;16.378;2023-07-22T08:09:16;3.15;;;1.98;;
76167;SDS011;64927;48.214;16.378;2023-07-22T08:11:44;3.60;;;2.20;;
76167;SDS011;64927;48.214;16.378;2023-07-22T08:14:13;2.97;;;2.10;;
76167;SDS011;64927;48.214;16.378;2023-07-22T08:16:39;3.40;;;2.05;;
76167;SDS011;64927;48.214;16.378;2023-07-22T08:19:05;4.00;;;2.17;;
76167;SDS011;64927;48.214;16.378;2023-07-22T08:21:30;2.65;;;1.83;;
76167;SDS011;64927;48.214;16.378;2023-07-22T08:23:58;2.35;;;1.83;;
76167;SDS011;64927;48.214;16.378;2023-07-22T08:26:24;2.40;;;1.80;;
76167;SDS011;64927;48.214;16.378;2023-07-22T08:28:49;4.68;;;1.92;;
76167;SDS011;64927;48.214;16.378;2023-07-22T08:31:15;6.05;;;2.42;;
76167;SDS011;64927;48.214;16.378;2023-07-22T08:33:41;3.10;;;1.88;;
76167;SDS011;64927;48.214;16.378;2023-07-22T08:36:09;5.50;;;2.00;;
76167;SDS011;64927;48.214;16.378;2023-07-22T08:38:35;4.75;;;2.10;;
76167;SDS011;64927;48.214;16.378;2023-07-22T08:41:03;2.65;;;2.10;;
76167;SDS011;64927;48.214;16.378;2023-07-22T08:43:29;2.47;;;2.03;;
76167;SDS011;64927;48.214;16.378;2023-07-22T08:45:55;3.45;;;1.95;;
76167;SDS011;64927;48.214;16.378;2023-07-22T08:48:26;1.60;;;1.40;;
76167;SDS011;64927;48.214;16.378;2023-07-22T08:50:55;2.03;;;1.77;;
76167;SDS011;64927;48.214;16.378;2023-07-22T08:53:27;3.47;;;1.98;;
76167;SDS011;64927;48.214;16.378;2023-07-22T08:55:58;3.03;;;1.75;;
76167;SDS011;64927;48.214;16.378;2023-07-22T08:58:24;2.38;;;2.05;;
76167;SDS011;64927;48.214;16.378;2023-07-22T09:00:50;2.38;;;1.70;;
76167;SDS011;64927;48.214;16.378;2023-07-22T09:03:16;4.05;;;1.73;;
76167;SDS011;64927;48.214;16.378;2023-07-22T09:05:44;2.35;;;1.70;;
76167;SDS011;64927;48.214;16.378;2023-07-22T09:08:11;3.78;;;2.55;;
76167;SDS011;64927;48.214;16.378;2023-07-22T09:10:38;2.75;;;1.95;;
76167;SDS011;64927;48.214;16.378;2023-07-22T09:13:04;3.88;;;1.70;;
76167;SDS011;64927;48.214;16.378;2023-07-22T09:15:31;1.55;;;1.45;;
76167;SDS011;64927;48.214;16.378;2023-07-22T09:18:01;3.28;;;1.75;;
76167;SDS011;64927;48.214;16.378;2023-07-22T09:20:28;2.53;;;1.60;;
76167;SDS011;64927;48.214;16.378;2023-07-22T09:22:54;2.70;;;1.80;;
76167;SDS011;64927;48.214;16.378;2023-07-22T09:25:21;2.58;;;1.60;;
76167;SDS011;64927;48.214;16.378;2023-07-22T09:27:53;2.42;;;1.60;;
76167;SDS011;64927;48.214;16.378;2023-07-22T09:33:00;3.70;;;1.75;;
76167;SDS011;64927;48.214;16.378;2023-07-22T09:38:07;2.60;;;1.40;;
76167;SDS011;64927;48.214;16.378;2023-07-22T09:40:33;2.17;;;1.42;;
76167;SDS011;64927;48.214;16.378;2023-07-22T09:43:01;5.47;;;2.00;;
76167;SDS011;64927;48.214;16.378;2023-07-22T09:45:28;4.55;;;1.83;;
76167;SDS011;64927;48.214;16.378;2023-07-22T09:47:55;4.88;;;1.63;;
76167;SDS011;64927;48.214;16.378;2023-07-22T09:50:24;4.20;;;1.70;;
76167;SDS011;64927;48.214;16.378;2023-07-22T09:52:51;4.10;;;1.48;;
76167;SDS011;64927;48.214;16.378;2023-07-22T09:55:19;3.78;;;1.92;;
76167;SDS011;64927;48.214;16.378;2023-07-22T09:57:50;5.38;;;1.77;;
76167;SDS011;64927;48.214;16.378;2023-07-22T10:00:19;4.00;;;1.58;;
76167;SDS011;64927;48.214;16.378;2023-07-22T10:02:46;6.38;;;2.08;;
76167;SDS011;64927;48.214;16.378;2023-07-22T10:05:15;2.92;;;2.05;;
76167;SDS011;64927;48.214;16.378;2023-07-22T10:07:49;3.97;;;1.75;;
76167;SDS011;64927;48.214;16.378;2023-07-22T10:10:20;3.28;;;1.60;;
76167;SDS011;64927;48.214;16.378;2023-07-22T10:13:02;1.90;;;1.70;;
76167;SDS011;64927;48.214;16.378;2023-07-22T10:15:29;2.60;;;1.80;;
76167;SDS011;64927;48.214;16.378;2023-07-22T10:17:58;3.20;;;2.00;;
76167;SDS011;64927;48.214;16.378;2023-07-22T10:20:27;2.95;;;1.77;;
76167;SDS011;64927;48.214;16.378;2023-07-22T10:22:54;3.40;;;2.00;;
76167;SDS011;64927;48.214;16.378;2023-07-22T10:25:21;4.88;;;1.60;;
76167;SDS011;64927;48.214;16.378;2023-07-22T10:27:52;3.58;;;1.63;;
76167;SDS011;64927;48.214;16.378;2023-07-22T10:30:19;2.35;;;1.80;;
76167;SDS011;64927;48.214;16.378;2023-07-22T10:32:46;3.38;;;1.77;;
76167;SDS011;64927;48.214;16.378;2023-07-22T10:35:34;2.05;;;1.67;;
76167;SDS011;64927;48.214;16.378;2023-07-22T10:38:09;5.32;;;1.70;;
76167;SDS011;64927;48.214;16.378;2023-07-22T10:40:52;4.20;;;1.90;;
76167;SDS011;64927;48.214;16.378;2023-07-22T10:43:40;4.28;;;1.90;;
76167;SDS011;64927;48.214;16.378;2023-07-22T10:46:09;3.20;;;1.67;;
76167;SDS011;64927;48.214;16.378;2023-07-22T10:48:36;3.30;;;1.60;;
76167;SDS011;64927;48.214;16.378;2023-07-22T10:51:05;9.88;;;2.40;;
76167;SDS011;64927;48.214;16.378;2023-07-22T10:53:32;4.43;;;2.00;;
76167;SDS011;64927;48.214;16.378;2023-07-22T11:01:22;2.70;;;1.80;;
76167;SDS011;64927;48.214;16.378;2023-07-22T11:14:27;2.67;;;1.88;;
76167;SDS011;64927;48.214;16.378;2023-07-22T11:16:56;4.22;;;1.80;;
76167;SDS011;64927;48.214;16.378;2023-07-22T11:19:26;3.75;;;1.85;;
76167;SDS011;64927;48.214;16.378;2023-07-22T11:21:52;4.18;;;1.73;;
76167;SDS011;64927;48.214;16.378;2023-07-22T11:24:20;6.55;;;2.40;;
76167;SDS011;64927;48.214;16.378;2023-07-22T11:26:47;2.20;;;1.85;;
76167;SDS011;64927;48.214;16.378;2023-07-22T11:29:14;2.75;;;1.83;;
76167;SDS011;64927;48.214;16.378;2023-07-22T11:31:41;4.90;;;2.00;;
76167;SDS011;64927;48.214;16.378;2023-07-22T11:34:09;3.97;;;2.08;;
76167;SDS011;64927;48.214;16.378;2023-07-22T11:36:35;4.07;;;2.00;;
76167;SDS011;64927;48.214;16.378;2023-07-22T11:39:04;3.42;;;2.30;;
76167;SDS011;64927;48.214;16.378;2023-07-22T11:41:37;2.30;;;2.10;;
76167;SDS011;64927;48.214;16.378;2023-07-22T11:44:09;2.65;;;1.90;;
76167;SDS011;64927;48.214;16.378;2023-07-22T11:49:25;2.60;;;1.88;;
76167;SDS011;64927;48.214;16.378;2023-07-22T11:51:52;2.55;;;2.05;;
76167;SDS011;64927;48.214;16.378;2023-07-22T11:54:23;5.63;;;2.20;;
76167;SDS011;64927;48.214;16.378;2023-07-22T11:56:49;2.78;;;2.30;;
76167;SDS011;64927;48.214;16.378;2023-07-22T11:59:15;2.67;;;2.00;;
76167;SDS011;64927;48.214;16.378;2023-07-22T12:01:44;2.35;;;1.77;;
76167;SDS011;64927;48.214;16.378;2023-07-22T12:04:11;2.90;;;1.95;;
76167;SDS011;64927;48.214;16.378;2023-07-22T12:06:38;2.70;;;2.22;;
76167;SDS011;64927;48.214;16.378;2023-07-22T12:09:04;4.95;;;2.13;;
76167;SDS011;64927;48.214;16.378;2023-07-22T12:11:34;2.50;;;2.00;;
76167;SDS011;64927;48.214;16.378;2023-07-22T12:14:12;5.93;;;2.22;;
76167;SDS011;64927;48.214;16.378;2023-07-22T12:16:41;3.33;;;2.00;;
76167;SDS011;64927;48.214;16.378;2023-07-22T12:19:07;3.47;;;2.00;;
76167;SDS011;64927;48.214;16.378;2023-07-22T12:21:34;2.60;;;2.10;;
76167;SDS011;64927;48.214;16.378;2023-07-22T12:24:00;2.40;;;2.20;;
76167;SDS011;64927;48.214;16.378;2023-07-22T12:26:29;4.88;;;2.00;;
76167;SDS011;64927;48.214;16.378;2023-07-22T12:28:54;3.00;;;2.22;;
76167;SDS011;64927;48.214;16.378;2023-07-22T12:31:20;3.03;;;1.98;;
76167;SDS011;64927;48.214;16.378;2023-07-22T12:33:46;2.30;;;2.10;;
76167;SDS011;64927;48.214;16.378;2023-07-22T12:36:11;3.63;;;2.30;;
76167;SDS011;64927;48.214;16.378;2023-07-22T12:38:37;3.20;;;2.25;;
76167;SDS011;64927;48.214;16.378;2023-07-22T12:41:03;2.53;;;2.13;;
76167;SDS011;64927;48.214;16.378;2023-07-22T12:43:29;3.05;;;2.15;;
76167;SDS011;64927;48.214;16.378;2023-07-22T12:45:57;3.38;;;2.00;;
76167;SDS011;64927;48.214;16.378;2023-07-22T12:48:23;5.90;;;2.03;;
76167;SDS011;64927;48.214;16.378;2023-07-22T12:50:51;4.45;;;1.90;;
76167;SDS011;64927;48.214;16.378;2023-07-22T12:53:17;4.22;;;2.22;;
76167;SDS011;64927;48.214;16.378;2023-07-22T12:55:43;3.05;;;2.00;;
76167;SDS011;64927;48.214;16.378;2023-07-22T12:58:09;2.30;;;2.00;;
76167;SDS011;64927;48.214;16.378;2023-07-22T13:00:39;3.83;;;2.50;;
76167;SDS011;64927;48.214;16.378;2023-07-22T13:03:05;2.75;;;2.15;;
76167;SDS011;64927;48.214;16.378;2023-07-22T13:05:31;3.90;;;2.30;;
76167;SDS011;64927;48.214;16.378;2023-07-22T13:07:57;2.97;;;2.40;;
76167;SDS011;64927;48.214;16.378;2023-07-22T13:10:26;4.13;;;1.88;;
76167;SDS011;64927;48.214;16.378;2023-07-22T13:12:59;5.13;;;2.35;;
76167;SDS011;64927;48.214;16.378;2023-07-22T13:15:24;2.85;;;2.10;;
76167;SDS011;64927;48.214;16.378;2023-07-22T13:17:52;3.45;;;1.77;;
76167;SDS011;64927;48.214;16.378;2023-07-22T13:20:18;2.80;;;2.17;;
76167;SDS011;64927;48.214;16.378;2023-07-22T13:22:46;3.17;;;1.83;;
76167;SDS011;64927;48.214;16.378;2023-07-22T13:25:11;4.28;;;2.30;;
76167;SDS011;64927;48.214;16.378;2023-07-22T13:27:37;3.05;;;1.88;;
76167;SDS011;64927;48.214;16.378;2023-07-22T13:30:08;2.00;;;1.67;;
76167;SDS011;64927;48.214;16.378;2023-07-22T13:32:38;2.13;;;1.92;;
76167;SDS011;64927;48.214;16.378;2023-07-22T13:35:04;5.68;;;1.92;;
76167;SDS011;64927;48.214;16.378;2023-07-22T13:37:30;3.70;;;2.17;;
76167;SDS011;64927;48.214;16.378;2023-07-22T13:39:56;2.78;;;2.05;;
76167;SDS011;64927;48.214;16.378;2023-07-22T13:42:22;2.53;;;2.20;;
76167;SDS011;64927;48.214;16.378;2023-07-22T13:44:49;2.80;;;2.08;;
76167;SDS011;64927;48.214;16.378;2023-07-22T13:47:14;5.65;;;2.30;;
76167;SDS011;64927;48.214;16.378;2023-07-22T13:49:40;4.28;;;2.15;;
76167;SDS011;64927;48.214;16.378;2023-07-22T13:52:05;2.70;;;2.15;;
76167;SDS011;64927;48.214;16.378;2023-07-22T13:54:31;3.30;;;2.25;;
76167;SDS011;64927;48.214;16.378;2023-07-22T13:56:57;2.30;;;2.03;;
76167;SDS011;64927;48.214;16.378;2023-07-22T13:59:25;5.05;;;2.35;;
76167;SDS011;64927;48.214;16.378;2023-07-22T14:01:50;2.63;;;2.17;;
76167;SDS011;64927;48.214;16.378;2023-07-22T14:04:16;2.30;;;1.80;;
76167;SDS011;64927;48.214;16.378;2023-07-22T14:06:41;3.15;;;2.10;;
76167;SDS011;64927;48.214;16.378;2023-07-22T14:09:07;2.30;;;2.00;;
76167;SDS011;64927;48.214;16.378;2023-07-22T14:11:35;2.65;;;2.08;;
76167;SDS011;64927;48.214;16.378;2023-07-22T14:14:03;3.08;;;1.98;;
76167;SDS011;64927;48.214;16.378;2023-07-22T14:16:28;3.67;;;2.03;;
76167;SDS011;64927;48.214;16.378;2023-07-22T14:18:54;4.50;;;1.70;;
76167;SDS011;64927;48.214;16.378;2023-07-22T14:21:20;2.65;;;2.45;;
76167;SDS011;64927;48.214;16.378;2023-07-22T14:23:45;2.50;;;2.00;;
76167;SDS011;64927;48.214;16.378;2023-07-22T14:26:11;2.67;;;2.00;;
76167;SDS011;64927;48.214;16.378;2023-07-22T14:28:37;2.83;;;1.90;;
76167;SDS011;64927;48.214;16.378;2023-07-22T14:31:03;3.83;;;2.03;;
76167;SDS011;64927;48.214;16.378;2023-07-22T14:33:29;3.08;;;2.13;;
76167;SDS011;64927;48.214;16.378;2023-07-22T14:35:55;4.95;;;2.53;;
76167;SDS011;64927;48.214;16.378;2023-07-22T14:38:21;2.90;;;2.05;;
76167;SDS011;64927;48.214;16.378;2023-07-22T14:40:47;2.88;;;1.90;;
76167;SDS011;64927;48.214;16.378;2023-07-22T14:43:13;2.28;;;2.08;;
76167;SDS011;64927;48.214;16.378;2023-07-22T14:45:41;2.90;;;2.05;;
76167;SDS011;64927;48.214;16.378;2023-07-22T14:48:07;4.15;;;2.20;;
76167;SDS011;64927;48.214;16.378;2023-07-22T14:50:33;5.10;;;2.38;;
76167;SDS011;64927;48.214;16.378;2023-07-22T14:52:59;5.97;;;2.35;;
76167;SDS011;64927;48.214;16.378;2023-07-22T14:55:26;3.83;;;2.20;;
76167;SDS011;64927;48.214;16.378;2023-07-22T14:57:54;3.50;;;1.90;;